Data for 04/11/2006

Time Sea-Level Adjusted Pressure Absolute Pressure Temperature Relative Humidity Dew Point   
(mb) (inHg) (mb) (inHg) (C) (F) (%) (C) (F)
00:05 1010 29.83 839 24.78 3.2 37.7 78 -0.3 31.4
00:10 1010 29.83 839 24.78 3 37.4 79 -0.3 31.5
00:15 1010 29.83 839 24.78 3.1 37.5 78 -0.3 31.4
00:20 1010 29.83 839 24.78 3 37.3 79 -0.4 31.3
00:25 1010 29.83 839 24.78 2.9 37.2 79 -0.4 31.3
00:30 1010 29.83 839 24.78 3 37.4 78 -0.5 31.2
00:35 1010 29.83 839 24.78 2.9 37.2 79 -0.4 31.4
00:40 1010 29.83 839 24.78 2.7 36.8 80 -0.4 31.3
00:45 1010 29.83 839 24.78 2.7 36.9 80 -0.3 31.4
00:50 1010 29.83 839 24.78 2.7 36.9 80 -0.4 31.2
00:55 1010 29.83 839 24.78 2.6 36.7 81 -0.4 31.3
01:00 1010 29.83 839 24.78 2.5 36.5 81 -0.4 31.2
01:05 1010 29.83 839 24.78 2.4 36.3 82 -0.3 31.4
01:10 1010 29.83 839 24.78 2.1 35.8 84 -0.3 31.4
01:15 1010 29.83 839 24.78 1.8 35.3 85 -0.5 31.1
01:20 1010 29.83 839 24.78 1.8 35.2 85 -0.5 31
01:25 1010 29.83 839 24.78 1.8 35.2 84 -0.6 30.9
01:30 1010 29.83 839 24.78 1.8 35.2 84 -0.6 31
01:35 1010 29.83 839 24.78 1.7 35 85 -0.6 30.8
01:40 1010 29.83 839 24.78 1.6 34.9 85 -0.6 30.9
01:45 1010 29.83 839 24.78 1.5 34.7 85 -0.7 30.8
01:50 1009 29.8 839 24.78 1.5 34.7 85 -0.8 30.6
01:55 1010 29.83 839 24.78 1.5 34.8 85 -0.8 30.6
02:00 1010 29.83 839 24.78 1.5 34.7 85 -0.7 30.8
02:05 1010 29.83 839 24.78 1.6 34.8 85 -0.7 30.7
02:10 1010 29.83 839 24.78 1.6 34.9 85 -0.7 30.8
02:15 1010 29.83 839 24.78 1.6 34.9 84 -0.8 30.6
02:20 1010 29.83 839 24.78 1.7 35.1 84 -0.7 30.8
02:25 1009 29.8 839 24.78 1.7 35.1 85 -0.6 30.9
02:30 1009 29.8 839 24.78 1.7 35.1 84 -0.8 30.6
02:35 1009 29.8 839 24.78 1.9 35.4 82 -0.9 30.4
02:40 1009 29.8 839 24.78 2.1 35.7 81 -0.8 30.5
02:45 1009 29.8 839 24.78 2.1 35.9 81 -0.8 30.6
02:50 1009 29.8 839 24.78 2.1 35.7 81 -0.8 30.5
02:55 1009 29.8 839 24.78 2 35.7 82 -0.8 30.6
03:00 1009 29.8 839 24.78 2.1 35.8 81 -0.8 30.6
03:05 1009 29.8 839 24.78 2.1 35.8 81 -0.9 30.4
03:10 1009 29.8 839 24.78 2.2 35.9 80 -0.9 30.5
03:15 1009 29.8 838 24.75 2 35.6 81 -0.8 30.5
03:20 1009 29.8 839 24.78 1.7 35 82 -1 30.2
03:25 1010 29.83 839 24.78 1.7 35 81 -1.2 29.8
03:30 1010 29.83 839 24.78 1.8 35.3 80 -1.3 29.7
03:35 1010 29.83 839 24.78 1.7 35.1 80 -1.4 29.5
03:40 1010 29.83 839 24.78 2 35.5 78 -1.5 29.3
03:45 1010 29.83 839 24.78 2.1 35.7 76 -1.8 28.8
03:50 1010 29.83 839 24.78 2.1 35.8 75 -1.8 28.7
03:55 1010 29.83 839 24.78 2.1 35.8 76 -1.6 29.2
04:00 1010 29.83 839 24.78 2.1 35.8 77 -1.5 29.2
04:05 1010 29.83 839 24.78 2 35.6 77 -1.6 29.1
04:10 1010 29.83 839 24.78 2.1 35.7 77 -1.6 29.2
04:15 1010 29.83 839 24.78 1.9 35.4 78 -1.5 29.3
04:20 1010 29.83 839 24.78 1.7 35.1 79 -1.5 29.3
04:25 1010 29.83 839 24.78 1.5 34.8 80 -1.5 29.3
04:30 1010 29.83 839 24.78 1.5 34.7 81 -1.4 29.4
04:35 1010 29.83 839 24.78 1.6 34.8 81 -1.4 29.5
04:40 1010 29.83 839 24.78 1.6 34.8 81 -1.3 29.6
04:45 1010 29.83 839 24.78 1.5 34.6 81 -1.4 29.5
04:50 1010 29.83 839 24.78 1.4 34.6 81 -1.4 29.4
04:55 1010 29.83 839 24.78 1.4 34.4 81 -1.6 29.2
05:00 1010 29.83 839 24.78 1.2 34.2 81 -1.7 28.9
05:05 1010 29.83 839 24.78 1.3 34.4 79 -2 28.4
05:10 1010 29.83 839 24.78 1.8 35.3 76 -2 28.4
05:15 1010 29.83 839 24.78 2.2 36 75 -1.8 28.8
05:20 1010 29.83 839 24.78 2.3 36.1 74 -1.9 28.6
05:25 1010 29.83 840 24.81 2.1 35.8 74 -1.9 28.5
05:30 1010 29.83 840 24.81 1.8 35.2 75 -2.1 28.2
05:35 1010 29.83 840 24.81 1.8 35.2 75 -2.1 28.2
05:40 1010 29.83 840 24.81 1.8 35.3 76 -2 28.3
05:45 1010 29.83 840 24.81 1.6 34.8 77 -2 28.4
05:50 1010 29.83 840 24.81 1.2 34.2 79 -2 28.3
05:55 1010 29.83 840 24.81 1.1 33.9 79 -2.2 28
06:00 1010 29.83 840 24.81 1.2 34.1 77 -2.3 27.8
06:05 1011 29.85 840 24.81 1.8 35.2 71 -2.9 26.8
06:10 1011 29.85 840 24.81 1.9 35.4 72 -2.7 27.2
06:15 1011 29.85 840 24.81 1.6 34.8 75 -2.4 27.6
06:20 1011 29.85 840 24.81 1.1 34 76 -2.7 27.1
06:25 1011 29.85 840 24.81 1.1 34 74 -2.9 26.7
06:30 1011 29.85 840 24.81 1.4 34.5 74 -2.7 27.1
06:35 1011 29.85 840 24.81 1.3 34.4 74 -2.7 27.1
06:40 1011 29.85 840 24.81 1.1 33.9 76 -2.8 27
06:45 1011 29.85 840 24.81 0.9 33.6 76 -2.8 26.9
06:50 1011 29.85 840 24.81 0.8 33.4 77 -2.9 26.8
06:55 1011 29.85 840 24.81 0.6 33.1 76 -3.1 26.4
07:00 1011 29.85 840 24.81 0.7 33.2 75 -3.3 26.1
07:05 1011 29.85 840 24.81 0.7 33.3 74 -3.3 26
07:10 1011 29.85 840 24.81 0.8 33.5 74 -3.3 26
07:15 1011 29.85 840 24.81 0.8 33.4 72 -3.7 25.3
07:20 1011 29.85 841 24.83 1.4 34.4 69 -3.7 25.3
07:25 1011 29.85 841 24.83 1.8 35.2 69 -3.3 26
07:30 1012 29.88 841 24.83 1.8 35.3 69 -3.2 26.2
07:35 1012 29.88 841 24.83 1.9 35.5 68 -3.4 25.9
07:40 1012 29.88 841 24.83 1.9 35.4 68 -3.3 26
07:45 1012 29.88 841 24.83 1.9 35.5 68 -3.4 25.9
07:50 1012 29.88 841 24.83 1.8 35.2 70 -3 26.5
07:55 1012 29.88 841 24.83 1.6 34.9 70 -3.3 26.1
08:00 1012 29.88 841 24.83 1.7 35.1 70 -3.2 26.2
08:05 1012 29.88 841 24.83 2.2 36 67 -3.2 26.2
08:10 1012 29.88 841 24.83 2.7 36.9 66 -3 26.7
08:15 1012 29.88 841 24.83 3 37.5 64 -3.1 26.5
08:20 1012 29.88 841 24.83 3.1 37.5 64 -3.2 26.3
08:25 1012 29.88 841 24.83 3.7 38.6 60 -3.4 25.9
08:30 1012 29.88 842 24.86 3.8 38.8 60 -3.3 26.1
08:35 1012 29.88 842 24.86 4.1 39.3 58 -3.4 25.9
08:40 1012 29.88 842 24.86 5 41 56 -3 26.6
08:45 1012 29.88 842 24.86 5.3 41.6 57 -2.6 27.4
08:50 1012 29.88 842 24.86 5.3 41.5 57 -2.5 27.6
08:55 1012 29.88 842 24.86 5.1 41.2 60 -2.1 28.2
09:00 1012 29.88 842 24.86 5.1 41.2 60 -2.1 28.2
09:05 1012 29.88 842 24.86 5.2 41.3 58 -2.5 27.5
09:10 1012 29.88 842 24.86 5.3 41.6 57 -2.5 27.6
09:15 1012 29.88 842 24.86 5.3 41.5 58 -2.4 27.7
09:20 1012 29.88 842 24.86 5.7 42.2 56 -2.4 27.6
09:25 1012 29.88 842 24.86 6.5 43.7 53 -2.3 27.9
09:30 1012 29.88 842 24.86 6.9 44.5 51 -2.4 27.6
09:35 1013 29.91 842 24.86 6.8 44.2 53 -2.2 28.1
09:40 1013 29.91 842 24.86 6.8 44.3 50 -2.8 27
09:45 1013 29.91 842 24.86 6.9 44.4 51 -2.6 27.3
09:50 1013 29.91 842 24.86 7.3 45.1 49 -2.7 27.2
09:55 1013 29.91 842 24.86 6.7 44.1 51 -2.6 27.4
10:00 1013 29.91 842 24.86 7.2 45 50 -2.5 27.4
10:05 1013 29.91 842 24.86 8 46.4 48 -2.3 27.8
10:10 1013 29.91 842 24.86 7.7 45.9 50 -2.1 28.3
10:15 1013 29.91 842 24.86 8.1 46.6 47 -2.4 27.7
10:20 1013 29.91 842 24.86 8.7 47.7 45 -2.5 27.4
10:25 1013 29.91 842 24.86 8.5 47.3 47 -2 28.4
10:30 1013 29.91 842 24.86 9.1 48.5 44 -2.5 27.5
10:35 1013 29.91 842 24.86 9.9 49.8 42 -2.5 27.4
10:40 1013 29.91 842 24.86 9.8 49.7 41 -2.7 27.1
10:45 1013 29.91 842 24.86 10.6 51.1 35 -4.3 24.3
10:50 1013 29.91 842 24.86 11.1 52 34 -4.2 24.4
10:55 1013 29.91 842 24.86 11.5 52.7 32 -4.5 23.8
11:00 1013 29.91 842 24.86 11.1 52 33 -4.7 23.6
11:05 1013 29.91 842 24.86 10.9 51.6 33 -4.6 23.7
11:10 1013 29.91 842 24.86 10.7 51.2 35 -4 24.8
11:15 1013 29.91 842 24.86 9.9 49.9 35 -4.7 23.5
11:20 1013 29.91 842 24.86 11 51.7 34 -4.2 24.4
11:25 1013 29.91 842 24.86 11.1 52 35 -3.7 25.4
11:30 1013 29.91 842 24.86 11.5 52.8 34 -3.9 24.9
11:35 1013 29.91 842 24.86 12.3 54.2 32 -4.1 24.7
11:40 1013 29.91 842 24.86 12.3 54.1 33 -3.6 25.5
11:45 1013 29.91 842 24.86 12.3 54.2 32 -3.8 25.2
11:50 1013 29.91 842 24.86 11.8 53.3 33 -3.8 25.2
11:55 1013 29.91 842 24.86 12.2 53.9 33 -3.7 25.4
12:00 1013 29.91 842 24.86 12.5 54.4 32 -3.5 25.6
12:05 1013 29.91 842 24.86 12.6 54.6 31 -4.1 24.7
12:10 1013 29.91 842 24.86 12.6 54.8 33 -3.2 26.3
12:15 1013 29.91 842 24.86 12.6 54.7 32 -3.4 25.8
12:20 1013 29.91 842 24.86 12.6 54.7 28 -5.2 22.7
12:25 1013 29.91 842 24.86 12.8 55 29 -4.9 23.2
12:30 1013 29.91 842 24.86 13 55.4 30 -4.3 24.3
12:35 1013 29.91 842 24.86 13.4 56.1 29 -4.1 24.7
12:40 1013 29.91 842 24.86 12.6 54.8 27 -6 21.2
12:45 1013 29.91 842 24.86 12.6 54.6 26 -6.2 20.9
12:50 1013 29.91 842 24.86 11.6 52.8 28 -6.2 20.8
12:55 1013 29.91 842 24.86 11.2 52.1 28 -6.6 20
13:00 1013 29.91 842 24.86 10.9 51.7 29 -6.6 20.2
13:05 1013 29.91 842 24.86 11 51.8 29 -6.3 20.7
13:10 1013 29.91 842 24.86 11.5 52.7 28 -6.5 20.3
13:15 1013 29.91 842 24.86 11.9 53.5 28 -6 21.2
13:20 1013 29.91 842 24.86 12.5 54.4 28 -5.5 22
13:25 1013 29.91 842 24.86 12.2 53.9 27 -6.4 20.5
13:30 1013 29.91 842 24.86 11.3 52.4 28 -6.4 20.5
13:35 1013 29.91 842 24.86 11.4 52.5 28 -6.3 20.6
13:40 1013 29.91 842 24.86 11.2 52.1 28 -6.6 20.2
13:45 1013 29.91 842 24.86 11.2 52.1 28 -6.6 20.1
13:50 1013 29.91 842 24.86 11.2 52.2 27 -7.3 18.9
13:55 1013 29.91 842 24.86 11.6 52.8 29 -5.9 21.4
14:00 1013 29.91 842 24.86 11.7 53.1 28 -6.3 20.7
14:05 1013 29.91 842 24.86 11.7 53.1 28 -6.2 20.8
14:10 1013 29.91 842 24.86 12.9 55.2 26 -6.1 21.1
14:15 1013 29.91 842 24.86 12 53.5 28 -5.9 21.4
14:20 1013 29.91 842 24.86 11.1 51.9 30 -6 21.1
14:25 1013 29.91 842 24.86 11.9 53.4 28 -5.8 21.5
14:30 1013 29.91 842 24.86 12.7 54.9 27 -5.6 21.9
14:35 1013 29.91 842 24.86 11.8 53.2 29 -5.6 22
14:40 1013 29.91 842 24.86 11.3 52.3 30 -5.8 21.6
14:45 1013 29.91 842 24.86 11.5 52.6 30 -5.5 22.1
14:50 1013 29.91 842 24.86 11.3 52.4 29 -5.8 21.5
14:55 1013 29.91 842 24.86 11.6 52.9 29 -6 21.3
15:00 1013 29.91 842 24.86 12.3 54.1 28 -5.8 21.5
15:05 1013 29.91 842 24.86 12.4 54.2 28 -5.7 21.8
15:10 1013 29.91 842 24.86 11.5 52.7 28 -6.5 20.3
15:15 1013 29.91 842 24.86 11.8 53.3 26 -6.8 19.7
15:20 1013 29.91 842 24.86 12.1 53.8 27 -6.1 21.1
15:25 1013 29.91 842 24.86 11.6 53 29 -5.7 21.7
15:30 1013 29.91 842 24.86 11.8 53.3 28 -6.2 20.9
15:35 1013 29.91 842 24.86 12.1 53.7 29 -5.4 22.2
15:40 1013 29.91 842 24.86 12.4 54.4 28 -5.3 22.4
15:45 1013 29.91 842 24.86 12.3 54.2 27 -6.3 20.7
15:50 1013 29.91 842 24.86 12.8 55 25 -6.5 20.3
15:55 1013 29.91 842 24.86 12.9 55.1 26 -6.1 21
16:00 1013 29.91 842 24.86 12.2 53.9 27 -6.1 21
16:05 1013 29.91 842 24.86 11.9 53.5 31 -4.8 23.4
16:10 1013 29.91 842 24.86 11.8 53.2 28 -6.2 20.8
16:15 1013 29.91 842 24.86 12.4 54.3 27 -5.8 21.5
16:20 1013 29.91 842 24.86 12.7 54.9 26 -6.1 21.1
16:25 1013 29.91 842 24.86 12.9 55.3 26 -6 21.2
16:30 1013 29.91 842 24.86 13 55.5 26 -6 21.3
16:35 1013 29.91 842 24.86 13 55.4 26 -5.9 21.3
16:40 1013 29.91 842 24.86 12.7 54.8 28 -5.3 22.4
16:45 1013 29.91 842 24.86 12.3 54.1 28 -5.5 22.2
16:50 1013 29.91 842 24.86 11.8 53.2 30 -5.3 22.5
16:55 1013 29.91 842 24.86 11.8 53.2 30 -5.3 22.5
17:00 1013 29.91 842 24.86 11.8 53.2 31 -4.7 23.5
17:05 1013 29.91 842 24.86 12 53.5 29 -5.3 22.5
17:10 1013 29.91 842 24.86 12 53.6 29 -5.4 22.4
17:15 1013 29.91 842 24.86 11.8 53.2 30 -5 23
17:20 1013 29.91 842 24.86 11.6 52.8 31 -4.9 23.2
17:25 1013 29.91 842 24.86 11.7 53 32 -4.6 23.7
17:30 1013 29.91 842 24.86 11.8 53.2 31 -4.6 23.7
17:35 1013 29.91 842 24.86 11.6 52.9 32 -4.5 24
17:40 1013 29.91 843 24.89 11.5 52.6 33 -4.3 24.3
17:45 1013 29.91 843 24.89 10.9 51.7 36 -3.6 25.4
17:50 1013 29.91 843 24.89 10.8 51.4 35 -4.1 24.7
17:55 1013 29.91 843 24.89 10.7 51.3 35 -4 24.9
18:00 1014 29.94 843 24.89 10.7 51.2 37 -3.5 25.7
18:05 1014 29.94 843 24.89 10.8 51.5 36 -3.6 25.6
18:10 1014 29.94 843 24.89 10.8 51.5 36 -3.5 25.8
18:15 1014 29.94 843 24.89 10.7 51.2 37 -3.3 26
18:20 1014 29.94 843 24.89 10.5 50.9 38 -3.3 26.1
18:25 1014 29.94 843 24.89 10.5 50.8 37 -3.5 25.7
18:30 1014 29.94 843 24.89 10.1 50.2 41 -2.6 27.3
18:35 1014 29.94 843 24.89 9.8 49.6 45 -1.6 29.2
18:40 1014 29.94 843 24.89 9 48.2 49 -1.1 30.1
18:45 1014 29.94 843 24.89 8.5 47.4 50 -1.2 29.8
18:50 1014 29.94 843 24.89 8.4 47 48 -1.9 28.5
18:55 1014 29.94 844 24.92 8.5 47.3 49 -1.6 29.1
19:00 1014 29.94 844 24.92 8.5 47.3 51 -1.1 29.9
19:05 1014 29.94 844 24.92 8.2 46.8 48 -2.2 28
19:10 1015 29.97 844 24.92 8.2 46.7 46 -2.7 27.2
19:15 1015 29.97 844 24.92 8.2 46.7 42 -4 24.9
19:20 1014 29.94 843 24.89 8.1 46.7 43 -3.5 25.7
19:25 1014 29.94 844 24.92 8.4 47.2 38 -5 23
19:30 1014 29.94 844 24.92 8.6 47.4 53 -0.5 31.1
19:35 1014 29.94 844 24.92 7.7 45.8 57 -0.3 31.4
19:40 1015 29.97 844 24.92 7.3 45.1 60 0.1 32.2
19:45 1015 29.97 844 24.92 7.1 44.7 63 0.4 32.7
19:50 1015 29.97 844 24.92 7 44.5 62 0.2 32.3
19:55 1015 29.97 844 24.92 7.1 44.7 59 -0.5 31.2
20:00 1015 29.97 844 24.92 7.3 45.1 58 -0.4 31.3
20:05 1015 29.97 844 24.92 7.1 44.8 55 -1.2 29.8
20:10 1015 29.97 844 24.92 7.4 45.2 54 -1.4 29.5
20:15 1015 29.97 844 24.92 7.3 45.1 56 -1 30.2
20:20 1015 29.97 844 24.92 7.3 45.1 54 -1.3 29.6
20:25 1015 29.97 844 24.92 7.7 45.8 48 -2.7 27.1
20:30 1015 29.97 844 24.92 8.3 46.9 48 -2.2 28
20:35 1015 29.97 845 24.95 7.6 45.6 60 0.4 32.7
20:40 1015 29.97 845 24.95 6.9 44.4 60 -0.4 31.3
20:45 1015 29.97 845 24.95 6.8 44.3 61 -0.2 31.6
20:50 1015 29.97 845 24.95 6.8 44.3 62 0.1 32.2
20:55 1015 29.97 845 24.95 6.9 44.4 59 -0.5 31
21:00 1015 29.97 845 24.95 7.1 44.8 58 -0.5 31.1
21:05 1015 29.97 845 24.95 7 44.6 59 -0.5 31.1
21:10 1015 29.97 845 24.95 7.1 44.8 59 -0.4 31.2
21:15 1015 29.97 845 24.95 7.1 44.7 57 -0.8 30.6
21:20 1015 29.97 845 24.95 7 44.7 59 -0.5 31.1
21:25 1016 30 845 24.95 7.1 44.7 59 -0.4 31.3
21:30 1016 30 845 24.95 7.2 44.9 59 -0.3 31.5
21:35 1016 30 845 24.95 6.9 44.4 59 -0.5 31.2
21:40 1016 30 845 24.95 6.7 44 60 -0.5 31.1
21:45 1016 30 845 24.95 6.6 43.9 57 -1.2 29.8
21:50 1016 30 845 24.95 6.8 44.2 57 -1.2 29.8
21:55 1016 30 845 24.95 6.8 44.2 57 -1.2 29.8
22:00 1016 30 845 24.95 6.8 44.3 56 -1.4 29.6
22:05 1016 30 845 24.95 6.8 44.3 55 -1.5 29.3
22:10 1016 30 845 24.95 6.9 44.4 53 -2 28.3
22:15 1016 30 845 24.95 7.1 44.7 53 -1.8 28.7
22:20 1016 30 845 24.95 7.1 44.8 52 -2 28.5
22:25 1016 30 845 24.95 7.3 45.1 53 -1.6 29.2
22:30 1016 30 845 24.95 7.4 45.4 53 -1.5 29.3
22:35 1016 30 845 24.95 7.5 45.5 52 -1.7 29
22:40 1016 30 845 24.95 7.3 45.2 57 -0.6 31
22:45 1016 30 846 24.98 6.7 44.1 61 -0.3 31.4
22:50 1016 30 846 24.98 6.6 43.8 61 -0.3 31.4
22:55 1016 30 846 24.98 6.6 43.8 62 -0.2 31.7
23:00 1017 30.03 846 24.98 6.5 43.6 62 -0.3 31.4
23:05 1017 30.03 846 24.98 6.6 43.9 61 -0.4 31.3
23:10 1017 30.03 846 24.98 6.7 44.1 60 -0.4 31.3
23:15 1017 30.03 846 24.98 6.6 43.8 61 -0.4 31.3
23:20 1017 30.03 846 24.98 6.6 44 57 -1.3 29.7
23:25 1017 30.03 846 24.98 6.9 44.4 57 -1.1 30.1
23:30 1017 30.03 846 24.98 7.1 44.9 55 -1.2 29.8
23:35 1017 30.03 846 24.98 7.3 45.2 56 -0.8 30.5
23:40 1017 30.03 846 24.98 7.2 44.9 58 -0.6 31
23:45 1017 30.03 846 24.98 7.1 44.7 57 -0.8 30.5
23:50 1017 30.03 846 24.98 7 44.7 58 -0.7 30.7
23:55 1017 30.03 846 24.98 7 44.6 59 -0.3 31.4
24:00 1017 30.03 846 24.98 6.4 43.4 62 -0.5 31.2